Creighton, South Dakota
Current Conditions -  °F | °C
As of 11:55 AM on Sunday 23 Nov 2014 (Local Time) from KPHP Reporting Station
Clear Clear  
Wind Chill: 40°   Ceiling: Unl
Heat Index: 49°   Visibility: 10mi
Dew Point: 24°   Wind: 32mph
Humidity: 38%   Direction: 320°NW
Pressure: 29.65"   Gusts: 49mph
Location:  44.29°N, 102.14°W
Report Text: KPHP 231855Z AUTO 32028G43KT 10SM CLR 09/M04 A2965 RMK AO2 PK WND 31043/1848 RAB00E18 SLP043 P0000 T00941044 $
Loading
Personal Weather Stations






























Interactive Weather Map New forecast layout! Learn more

10-Day Weather Forecast

Advertisements
Track Severe Weather on mobile